Time;durP1;ratioP1;P1;durP2;ratioP2;P2;SDS_P1;SDS_P2;PMS_P1;PMS_P2;Temp;Humidity;BMP_temperature;BMP_pressure;BME280_temperature;BME280_humidity;BME280_pressure;Samples;Min_cycle;Max_cycle;Signal;HPM_P1;HPM_P2
2023/10/16 00:00:57;;;;;;;10.75;3.22;;;;;;;8.59;100.00;102294.59;5049508;28;20493;-66
2023/10/16 00:03:45;;;;;;;6.75;3.20;;;;;;;8.60;100.00;102294.38;5042860;28;20132;-64
2023/10/16 00:06:36;;;;;;;6.97;2.95;;;;;;;8.64;100.00;102292.06;5043962;28;20048;-65
2023/10/16 00:09:28;;;;;;;7.00;2.80;;;;;;;8.64;100.00;102286.63;5055796;28;20091;-65
2023/10/16 00:12:19;;;;;;;6.28;2.97;;;;;;;8.67;100.00;102288.91;5061717;28;20500;-64
2023/10/16 00:15:08;;;;;;;7.28;3.08;;;;;;;8.67;100.00;102286.19;5075354;28;20048;-66
2023/10/16 00:17:57;;;;;;;6.85;3.03;;;;;;;8.67;100.00;102289.72;5036166;28;20056;-65
2023/10/16 00:20:46;;;;;;;6.13;3.03;;;;;;;8.66;100.00;102292.66;5065851;28;20052;-65
2023/10/16 00:23:38;;;;;;;6.65;2.95;;;;;;;8.65;100.00;102289.09;5060286;28;20049;-64
2023/10/16 00:26:26;;;;;;;6.93;2.80;;;;;;;8.66;100.00;102295.38;5046185;28;20415;-67
2023/10/16 00:29:19;;;;;;;6.47;3.00;;;;;;;8.64;100.00;102287.44;5075161;28;20078;-65
2023/10/16 00:32:07;;;;;;;8.20;3.00;;;;;;;8.62;100.00;102284.13;5059188;28;20052;-64
2023/10/16 00:34:55;;;;;;;6.90;3.28;;;;;;;8.62;100.00;102294.16;5059949;28;20056;-65
2023/10/16 00:37:44;;;;;;;5.30;2.70;;;;;;;8.56;100.00;102289.59;5059841;28;20045;-65
2023/10/16 00:40:32;;;;;;;8.70;3.25;;;;;;;8.51;100.00;102296.53;5059711;28;20060;-65
2023/10/16 00:43:20;;;;;;;6.72;3.30;;;;;;;8.49;100.00;102295.91;5073313;28;20086;-66
2023/10/16 00:46:09;;;;;;;8.57;3.33;;;;;;;8.49;100.00;102297.75;5074497;28;20098;-65
2023/10/16 00:48:58;;;;;;;9.13;3.08;;;;;;;8.52;100.00;102300.06;5057854;28;20078;-64
2023/10/16 00:51:46;;;;;;;8.18;3.10;;;;;;;8.55;100.00;102302.34;5058177;28;20089;-65
2023/10/16 00:54:39;;;;;;;7.00;2.95;;;;;;;8.56;100.00;102295.00;5073190;28;20049;-65
2023/10/16 00:57:28;;;;;;;6.30;2.90;;;;;;;8.55;100.00;102298.78;5045571;28;20075;-66
2023/10/16 01:00:17;;;;;;;6.50;3.10;;;;;;;8.55;100.00;102287.94;5045179;28;20463;-67
2023/10/16 01:03:05;;;;;;;7.30;3.00;;;;;;;8.56;100.00;102289.59;5031906;28;20127;-66
2023/10/16 01:05:53;;;;;;;7.88;3.08;;;;;;;8.59;100.00;102283.75;5072747;28;20519;-66
2023/10/16 01:08:51;;;;;;;7.78;2.97;;;;;;;8.60;100.00;102288.94;5072352;28;20135;-66
2023/10/16 01:11:39;;;;;;;7.28;3.13;;;;;;;8.61;100.00;102281.59;5039689;28;20102;-66
2023/10/16 01:14:29;;;;;;;7.47;3.10;;;;;;;8.60;100.00;102274.53;5053898;28;20060;-67
2023/10/16 01:17:29;;;;;;;6.25;2.97;;;;;;;8.59;100.00;102275.59;5040595;28;20132;-66
2023/10/16 01:20:18;;;;;;;7.43;3.20;;;;;;;8.58;100.00;102263.03;5070902;28;20397;-65
2023/10/16 01:23:07;;;;;;;6.53;2.90;;;;;;;8.59;100.00;102268.25;5068615;28;20079;-65
2023/10/16 01:25:55;;;;;;;6.75;2.90;;;;;;;8.57;100.00;102266.81;5068043;28;20052;-64
2023/10/16 01:28:44;;;;;;;9.38;3.30;;;;;;;8.56;100.00;102268.69;5058123;28;20515;-66
2023/10/16 01:31:32;;;;;;;10.18;3.53;;;;;;;8.56;100.00;102262.41;5071975;28;20551;-65
2023/10/16 01:34:22;;;;;;;8.98;2.80;;;;;;;8.55;100.00;102260.75;5057221;28;20510;-66
2023/10/16 01:37:12;;;;;;;8.82;3.20;;;;;;;8.49;100.00;102249.72;5057801;28;20041;-65
2023/10/16 01:43:07;;;;;;;8.23;2.95;;;;;;;8.45;100.00;102261.25;5063252;28;20374;-66
2023/10/16 01:45:58;;;;;;;6.07;2.88;;;;;;;8.45;100.00;102262.06;5073046;28;20072;-65
2023/10/16 01:48:49;;;;;;;10.57;3.33;;;;;;;8.43;100.00;102258.75;5057216;28;20121;-66
2023/10/16 01:51:38;;;;;;;8.32;3.10;;;;;;;8.39;100.00;102252.03;5056066;28;20055;-66
2023/10/16 01:54:26;;;;;;;9.00;3.10;;;;;;;8.40;100.00;102255.63;5057947;28;20400;-65
2023/10/16 01:57:15;;;;;;;9.65;3.00;;;;;;;8.38;100.00;102255.81;5054639;28;20049;-64
2023/10/16 02:00:06;;;;;;;7.30;3.05;;;;;;;8.38;100.00;102255.00;5044828;28;20044;-65
2023/10/16 02:03:01;;;;;;;8.65;3.22;;;;;;;8.37;100.00;102246.00;5055680;28;20041;-64
2023/10/16 02:05:49;;;;;;;9.27;3.17;;;;;;;8.39;100.00;102246.59;5023512;28;20049;-65
2023/10/16 02:08:44;;;;;;;9.07;2.88;;;;;;;8.41;100.00;102255.41;5066616;28;20045;-66
2023/10/16 02:11:32;;;;;;;8.43;2.95;;;;;;;8.40;100.00;102252.94;5056572;28;20072;-65
2023/10/16 02:14:20;;;;;;;8.00;3.40;;;;;;;8.38;100.00;102239.53;5036307;28;20048;-65
2023/10/16 02:17:18;;;;;;;8.90;3.13;;;;;;;8.37;100.00;102239.72;5057557;28;20045;-64
2023/10/16 02:20:14;;;;;;;5.47;2.67;;;;;;;8.38;100.00;102241.41;5091998;28;20043;-65
2023/10/16 02:23:06;;;;;;;6.90;2.67;;;;;;;8.37;100.00;102235.16;5062048;28;20044;-65
2023/10/16 02:25:56;;;;;;;6.75;2.53;;;;;;;8.39;100.00;102235.75;5057076;28;20044;-65
2023/10/16 02:28:49;;;;;;;8.98;3.15;;;;;;;8.37;100.00;102229.72;5072330;28;20044;-67
2023/10/16 02:31:39;;;;;;;9.20;2.75;;;;;;;8.36;100.00;102236.19;5069507;28;20110;-62
2023/10/16 02:34:27;;;;;;;7.82;2.97;;;;;;;8.37;100.00;102237.88;5089283;28;20049;-62
2023/10/16 02:37:16;;;;;;;9.23;3.22;;;;;;;8.38;100.00;102234.09;5104164;28;20044;-63
2023/10/16 02:40:09;;;;;;;11.55;2.90;;;;;;;8.40;100.00;102234.75;5070744;28;20056;-58
2023/10/16 02:43:02;;;;;;;8.23;3.30;;;;;;;8.40;100.00;102242.88;5065920;28;20123;-66
2023/10/16 02:45:52;;;;;;;8.93;3.20;;;;;;;8.41;100.00;102236.38;5061597;28;20045;-63
2023/10/16 02:48:44;;;;;;;7.35;2.85;;;;;;;8.40;100.00;102232.03;5062993;28;20048;-62
2023/10/16 02:51:34;;;;;;;7.78;3.00;;;;;;;8.41;100.00;102236.38;5067687;28;20048;-64
2023/10/16 02:54:22;;;;;;;7.82;2.88;;;;;;;8.43;100.00;102236.19;5058389;28;20058;-66
2023/10/16 02:57:11;;;;;;;6.90;3.30;;;;;;;8.43;100.00;102237.00;5082441;28;20052;-63
2023/10/16 02:59:59;;;;;;;8.02;3.10;;;;;;;8.44;100.00;102241.41;5065328;28;20151;-65
2023/10/16 03:02:47;;;;;;;6.70;3.15;;;;;;;8.42;100.00;102239.94;5071544;28;20131;-64
2023/10/16 03:05:37;;;;;;;6.78;3.10;;;;;;;8.39;100.00;102235.75;5053983;28;20788;-66
2023/10/16 03:08:32;;;;;;;9.05;3.28;;;;;;;8.39;100.00;102230.31;5058510;28;20067;-65
2023/10/16 03:11:20;;;;;;;9.10;3.42;;;;;;;8.41;100.00;102236.38;5057523;28;20048;-64
2023/10/16 03:14:12;;;;;;;5.85;3.00;;;;;;;8.44;100.00;102233.25;5042473;28;20041;-64
2023/10/16 03:17:00;;;;;;;7.50;3.22;;;;;;;8.44;100.00;102238.69;5074588;28;20129;-64
2023/10/16 03:19:55;;;;;;;9.35;2.97;;;;;;;8.43;100.00;102242.44;5075559;28;20045;-67
2023/10/16 03:22:46;;;;;;;8.82;3.17;;;;;;;8.43;100.00;102242.44;5061488;28;20512;-66
2023/10/16 03:28:31;;;;;;;6.65;2.60;;;;;;;8.38;100.00;102235.97;5044700;28;20048;-66
2023/10/16 03:31:20;;;;;;;7.13;3.47;;;;;;;8.37;100.00;102231.56;5075713;28;20496;-66
2023/10/16 03:34:11;;;;;;;8.68;3.53;;;;;;;8.36;100.00;102222.59;5062204;28;20049;-66
2023/10/16 03:37:04;;;;;;;8.20;3.20;;;;;;;8.33;100.00;102231.19;5058558;28;20045;-67
2023/10/16 03:40:03;;;;;;;9.25;4.00;;;;;;;8.31;100.00;102227.88;5047531;28;20063;-65
2023/10/16 03:42:53;;;;;;;8.00;3.13;;;;;;;8.32;100.00;102229.50;5059554;28;20040;-65
2023/10/16 03:45:41;;;;;;;7.75;3.63;;;;;;;8.33;100.00;102225.78;5060284;28;20084;-65
2023/10/16 03:48:29;;;;;;;11.27;3.58;;;;;;;8.32;100.00;102219.50;5065620;28;20040;-66
2023/10/16 03:51:17;;;;;;;11.32;3.55;;;;;;;8.33;100.00;102221.16;5058591;28;20052;-66
2023/10/16 03:54:06;;;;;;;9.52;3.58;;;;;;;8.33;100.00;102223.06;5060052;28;20040;-66
2023/10/16 03:56:54;;;;;;;10.35;3.80;;;;;;;8.33;100.00;102223.88;5062390;28;20044;-65
2023/10/16 03:59:42;;;;;;;9.50;3.83;;;;;;;8.34;100.00;102216.56;5074510;28;20499;-66
2023/10/16 04:02:31;;;;;;;8.35;3.80;;;;;;;8.37;100.00;102229.72;5072944;28;20190;-65
2023/10/16 04:08:26;;;;;;;9.27;3.70;;;;;;;8.37;100.00;102221.56;5073063;28;20117;-66
2023/10/16 04:11:15;;;;;;;10.50;3.85;;;;;;;8.35;100.00;102217.41;5072851;28;20095;-66
2023/10/16 04:14:11;;;;;;;10.70;3.67;;;;;;;8.34;100.00;102219.28;5073185;28;20059;-64
2023/10/16 04:17:00;;;;;;;6.68;3.63;;;;;;;8.31;100.00;102215.09;5075034;28;20265;-64
2023/10/16 04:19:59;;;;;;;8.77;3.80;;;;;;;8.32;100.00;102211.38;5059175;28;20051;-65
2023/10/16 04:22:57;;;;;;;10.98;3.90;;;;;;;8.32;100.00;102213.22;5059578;28;20044;-64
2023/10/16 04:26:28;;;;;;;10.75;3.80;;;;;;;8.32;100.00;102214.06;5057203;28;20044;-65
2023/10/16 04:35:03;;;;;;;8.70;3.78;;;;;;;8.36;100.00;102200.06;5074251;28;20051;-65
2023/10/16 04:37:56;;;;;;;8.02;3.58;;;;;;;8.34;100.00;102202.97;5068168;28;20040;-65
2023/10/16 04:46:55;;;;;;;8.65;3.75;;;;;;;8.26;100.00;102186.97;5049126;28;20505;-65
2023/10/16 04:49:59;;;;;;;7.80;3.58;;;;;;;8.28;100.00;102195.72;5059382;28;20102;-65
2023/10/16 04:58:38;;;;;;;9.52;3.83;;;;;;;8.19;100.00;102180.75;5073449;28;20049;-66
2023/10/16 05:02:06;;;;;;;8.77;3.55;;;;;;;8.16;100.00;102184.72;5044491;28;20041;-65
2023/10/16 05:04:59;;;;;;;9.77;3.75;;;;;;;8.17;100.00;102178.22;5058094;28;20053;-65
2023/10/16 05:07:53;;;;;;;10.13;4.60;;;;;;;8.21;100.00;102173.22;5061861;28;20048;-64
2023/10/16 06:16:17;;;;;;;9.98;4.55;;;;;;;8.28;100.00;102191.13;5041872;28;20044;-66
2023/10/16 06:19:15;;;;;;;12.38;5.50;;;;;;;8.25;100.00;102188.00;5074591;28;20059;-66
2023/10/16 06:22:07;;;;;;;12.57;5.32;;;;;;;8.21;100.00;102179.47;5080765;28;20331;-64
2023/10/16 06:24:55;;;;;;;13.35;5.45;;;;;;;8.20;100.00;102187.81;5054820;28;20048;-66
2023/10/16 06:27:46;;;;;;;12.32;5.95;;;;;;;8.16;100.00;102183.91;5068611;28;20124;-65
2023/10/16 06:30:37;;;;;;;11.35;5.50;;;;;;;8.11;100.00;102184.56;5069293;28;20055;-65
2023/10/16 06:33:28;;;;;;;12.35;4.93;;;;;;;8.11;100.00;102190.81;5072804;28;20197;-66
2023/10/16 06:36:17;;;;;;;9.38;4.70;;;;;;;8.18;100.00;102184.47;5057094;28;20045;-66
2023/10/16 06:39:06;;;;;;;9.48;4.78;;;;;;;8.24;100.00;102189.06;5067254;28;20052;-65
2023/10/16 06:41:55;;;;;;;10.90;4.85;;;;;;;8.28;100.00;102187.56;5053026;28;20133;-66
2023/10/16 06:44:53;;;;;;;9.30;4.80;;;;;;;8.29;100.00;102192.78;5066871;28;20052;-66
2023/10/16 06:47:47;;;;;;;12.82;5.60;;;;;;;8.29;100.00;102197.38;5062046;28;20071;-66
2023/10/16 06:50:44;;;;;;;12.13;5.35;;;;;;;8.31;100.00;102192.56;5058857;28;20063;-65
2023/10/16 06:53:33;;;;;;;10.20;4.90;;;;;;;8.31;100.00;102187.97;5061961;28;20068;-67
2023/10/16 06:56:35;;;;;;;11.52;5.10;;;;;;;8.30;100.00;102183.59;5038249;28;20452;-65
2023/10/16 06:59:27;;;;;;;11.98;4.63;;;;;;;8.30;100.00;102188.19;5071336;28;20040;-66
2023/10/16 07:02:21;;;;;;;8.35;4.47;;;;;;;8.27;100.00;102184.03;5073294;28;20052;-65
2023/10/16 07:05:10;;;;;;;11.30;4.43;;;;;;;8.27;100.00;102188.59;5077202;28;20048;-61
2023/10/16 07:07:59;;;;;;;9.48;4.90;;;;;;;8.28;100.00;102190.28;5074785;28;20060;-59
2023/10/16 07:10:49;;;;;;;8.85;4.40;;;;;;;8.31;100.00;102189.84;5089361;28;20179;-64
2023/10/16 07:13:40;;;;;;;10.38;4.63;;;;;;;8.34;100.00;102183.97;5058935;28;20056;-66
2023/10/16 07:16:28;;;;;;;11.05;4.75;;;;;;;8.38;100.00;102179.78;5085847;28;20043;-57
2023/10/16 07:19:18;;;;;;;11.13;4.70;;;;;;;8.41;100.00;102175.81;5065907;28;20102;-58
2023/10/16 07:22:10;;;;;;;10.77;4.30;;;;;;;8.43;100.00;102179.97;5072086;28;20125;-64
2023/10/16 07:28:12;;;;;;;9.85;4.78;;;;;;;8.42;100.00;102183.75;5072031;28;20062;-65
2023/10/16 07:31:02;;;;;;;10.25;4.60;;;;;;;8.43;100.00;102182.69;5071437;28;20449;-65
2023/10/16 07:33:54;;;;;;;9.75;4.43;;;;;;;8.45;100.00;102187.91;5055773;28;20043;-66
2023/10/16 07:36:45;;;;;;;10.63;4.38;;;;;;;8.46;100.00;102193.09;5071225;28;20140;-65
2023/10/16 07:39:34;;;;;;;12.73;4.97;;;;;;;8.47;100.00;102194.78;5071783;28;20068;-64
2023/10/16 07:42:24;;;;;;;13.65;5.00;;;;;;;8.45;100.00;102196.06;5057053;28;20063;-65
2023/10/16 07:45:12;;;;;;;14.00;5.20;;;;;;;8.41;100.00;102190.22;5072144;28;20067;-64
2023/10/16 07:48:07;;;;;;;10.43;4.55;;;;;;;8.38;100.00;102200.66;5058044;28;20517;-65
2023/10/16 07:50:55;;;;;;;10.88;5.13;;;;;;;8.36;100.00;102191.91;5057537;28;20071;-64
2023/10/16 07:53:44;;;;;;;12.77;4.80;;;;;;;8.39;100.00;102192.28;5058400;28;20083;-64
2023/10/16 07:56:32;;;;;;;12.70;4.93;;;;;;;8.41;100.00;102190.22;5044752;28;20079;-65
2023/10/16 07:59:21;;;;;;;9.70;4.88;;;;;;;8.43;100.00;102188.13;5071103;28;20067;-64
2023/10/16 08:02:17;;;;;;;12.15;4.85;;;;;;;8.46;100.00;102187.66;5072634;28;20075;-64
2023/10/16 08:05:06;;;;;;;9.52;4.30;;;;;;;8.50;100.00;102188.06;5063255;28;20045;-64
2023/10/16 08:08:00;;;;;;;9.63;5.10;;;;;;;8.51;100.00;102187.88;5074796;28;20049;-65
2023/10/16 08:10:48;;;;;;;12.40;4.60;;;;;;;8.56;100.00;102189.06;5075837;28;20044;-64
2023/10/16 08:13:36;;;;;;;8.60;4.30;;;;;;;8.58;100.00;102195.13;5060920;28;20510;-64
2023/10/16 08:16:26;;;;;;;17.25;5.60;;;;;;;8.64;100.00;102183.38;5047476;28;20048;-64
2023/10/16 08:19:15;;;;;;;10.68;4.50;;;;;;;8.70;100.00;102177.03;5073607;28;20118;-64
2023/10/16 08:22:07;;;;;;;10.40;4.15;;;;;;;8.74;100.00;102178.28;5074081;28;20044;-64
2023/10/16 08:24:58;;;;;;;9.00;4.20;;;;;;;8.77;100.00;102183.25;5075447;28;20051;-65
2023/10/16 08:27:49;;;;;;;11.68;4.55;;;;;;;8.81;100.00;102184.47;5073698;28;20099;-65
2023/10/16 08:33:35;;;;;;;9.50;4.18;;;;;;;8.85;100.00;102188.44;5075204;28;20544;-65
2023/10/16 08:36:24;;;;;;;8.82;4.10;;;;;;;8.89;100.00;102183.34;5073950;28;20129;-64
2023/10/16 08:39:15;;;;;;;7.45;3.80;;;;;;;8.90;100.00;102183.16;5074966;28;20430;-65
2023/10/16 08:42:19;;;;;;;10.90;4.05;;;;;;;8.94;100.00;102183.50;5073701;28;20079;-64
2023/10/16 08:45:23;;;;;;;10.10;4.50;;;;;;;8.98;100.00;102184.75;5075114;28;20270;-65
2023/10/16 08:48:17;;;;;;;10.77;3.70;;;;;;;9.01;100.00;102181.56;5062372;28;20143;-64
2023/10/16 08:51:08;;;;;;;8.35;3.88;;;;;;;9.06;100.00;102180.91;5065719;28;20063;-65
2023/10/16 08:54:02;;;;;;;7.20;3.45;;;;;;;9.08;100.00;102181.50;5059680;28;20057;-64
2023/10/16 08:56:53;;;;;;;7.53;3.05;;;;;;;9.11;100.00;102181.06;5074854;28;20094;-64
2023/10/16 08:59:46;;;;;;;9.90;3.83;;;;;;;9.13;100.00;102187.09;5060821;28;20044;-65
2023/10/16 09:02:35;;;;;;;7.32;3.20;;;;;;;9.15;100.00;102180.38;5060592;28;20048;-64
2023/10/16 09:05:23;;;;;;;7.00;3.20;;;;;;;9.17;100.00;102183.72;5047088;28;20145;-65
2023/10/16 09:08:14;;;;;;;7.22;3.17;;;;;;;9.22;100.00;102184.94;5045609;28;20056;-65
2023/10/16 09:11:06;;;;;;;6.97;3.30;;;;;;;9.25;100.00;102181.75;5040019;28;20052;-64
2023/10/16 09:13:54;;;;;;;7.50;3.17;;;;;;;9.28;100.00;102184.00;5038307;28;20041;-64
2023/10/16 09:16:44;;;;;;;6.53;2.90;;;;;;;9.30;100.00;102176.47;5053937;28;20037;-66
2023/10/16 09:19:46;;;;;;;10.90;3.17;;;;;;;9.33;100.00;102182.28;5040135;28;20081;-64
2023/10/16 09:22:54;;;;;;;7.70;2.80;;;;;;;9.37;100.00;102178.03;5063154;28;20121;-65
2023/10/16 09:25:44;;;;;;;7.32;3.22;;;;;;;9.43;100.00;102175.47;5075562;28;20043;-64
2023/10/16 09:28:33;;;;;;;7.45;3.00;;;;;;;9.46;100.00;102184.03;5074251;28;20048;-64
2023/10/16 09:31:24;;;;;;;5.55;2.83;;;;;;;9.50;100.00;102182.53;5074276;28;20124;-64
2023/10/16 09:34:17;;;;;;;6.65;2.80;;;;;;;9.53;100.00;102183.97;5074503;28;20045;-64
2023/10/16 09:37:15;;;;;;;6.13;2.70;;;;;;;9.54;100.00;102178.28;5073157;28;20041;-64
2023/10/16 09:43:32;;;;;;;9.20;3.17;;;;;;;9.72;100.00;102182.88;5060486;28;20055;-64
2023/10/16 09:47:25;;;;;;;7.43;2.83;;;;;;;9.78;100.00;102195.56;5040200;28;20091;-65
2023/10/16 09:49:33;;;;;;;7.80;2.72;;;;;;;9.80;100.00;102189.91;5053139;28;20115;-64
2023/10/16 09:52:22;;;;;;;6.95;2.70;;;;;;;9.80;100.00;102187.16;5038877;28;20174;-65
2023/10/16 09:55:12;;;;;;;5.38;2.50;;;;;;;9.80;100.00;102184.44;5041945;28;20499;-65
2023/10/16 09:58:03;;;;;;;7.93;2.75;;;;;;;9.81;100.00;102183.38;5058720;28;20110;-66
2023/10/16 10:00:52;;;;;;;5.00;2.63;;;;;;;9.84;100.00;102198.41;5070565;28;20044;-65
2023/10/16 10:03:41;;;;;;;11.40;3.05;;;;;;;9.87;100.00;102187.09;5057996;28;20044;-65
2023/10/16 10:06:35;;;;;;;5.55;2.38;;;;;;;9.89;100.00;102188.53;5060929;28;20238;-65
2023/10/16 10:09:41;;;;;;;7.50;2.78;;;;;;;9.90;100.00;102189.34;4341233;28;9999997;-65
2023/10/16 10:12:42;;;;;;;8.90;2.80;;;;;;;9.92;100.00;102188.06;5040208;28;20049;-67
2023/10/16 10:15:34;;;;;;;7.90;2.80;;;;;;;9.95;100.00;102189.47;5038643;28;20049;-66
2023/10/16 10:18:31;;;;;;;9.18;2.72;;;;;;;10.00;100.00;102195.06;5045019;28;20135;-66
2023/10/16 10:21:27;;;;;;;6.30;2.90;;;;;;;10.02;100.00;102195.66;5069057;28;20044;-65
2023/10/16 10:24:16;;;;;;;3.90;2.53;;;;;;;10.05;100.00;102189.75;5056451;28;20048;-66
2023/10/16 10:27:11;;;;;;;6.47;3.17;;;;;;;10.08;100.00;102183.88;5056544;28;20044;-65
2023/10/16 10:30:06;;;;;;;5.55;2.55;;;;;;;10.10;100.00;102192.66;5028497;28;20055;-65
2023/10/16 10:32:59;;;;;;;5.63;2.67;;;;;;;10.13;100.00;102188.63;5022041;28;20067;-65
2023/10/16 10:35:48;;;;;;;6.70;2.40;;;;;;;10.16;100.00;102188.97;5067086;28;20052;-64
2023/10/16 10:38:36;;;;;;;6.85;2.60;;;;;;;10.22;100.00;102187.22;5059043;28;20048;-64
2023/10/16 10:41:25;;;;;;;7.13;2.72;;;;;;;10.25;100.00;102184.03;5058460;28;20055;-65
2023/10/16 10:44:14;;;;;;;5.07;2.42;;;;;;;10.22;100.00;102182.63;5073421;28;20048;-64
2023/10/16 10:47:30;;;;;;;8.43;2.90;;;;;;;10.22;100.00;102187.22;5058909;28;20037;-64
2023/10/16 10:50:21;;;;;;;4.20;2.25;;;;;;;10.27;100.00;102175.63;5072733;28;20127;-65
2023/10/16 10:53:13;;;;;;;5.50;2.40;;;;;;;10.33;100.00;102172.00;5072165;28;20056;-64
2023/10/16 10:56:07;;;;;;;5.80;2.30;;;;;;;10.36;100.00;102175.09;5059097;28;20047;-65
2023/10/16 10:58:55;;;;;;;3.67;2.00;;;;;;;10.35;100.00;102173.44;5073500;28;20119;-65
2023/10/16 11:01:52;;;;;;;4.97;2.17;;;;;;;10.38;100.00;102166.69;5060377;28;20079;-65
2023/10/16 11:04:40;;;;;;;4.85;1.83;;;;;;;10.44;100.00;102166.59;5073888;28;20055;-64
2023/10/16 11:07:39;;;;;;;9.95;2.70;;;;;;;10.49;100.00;102157.72;5071824;28;20048;-66
2023/10/16 11:10:29;;;;;;;5.22;2.30;;;;;;;10.52;100.00;102154.50;5051541;28;20053;-64
2023/10/16 11:13:18;;;;;;;8.13;2.15;;;;;;;10.51;100.00;102155.59;5055266;28;20068;-63
2023/10/16 11:16:09;;;;;;;4.78;2.08;;;;;;;10.53;100.00;102152.63;5030492;28;20140;-66
2023/10/16 11:18:58;;;;;;;5.72;2.40;;;;;;;10.53;100.00;102152.63;5070972;28;20055;-63
2023/10/16 11:21:47;;;;;;;5.30;2.20;;;;;;;10.56;100.00;102149.41;5072964;28;20052;-64
2023/10/16 11:24:36;;;;;;;7.15;2.15;;;;;;;10.59;100.00;102147.06;5072428;28;20059;-64
2023/10/16 11:27:24;;;;;;;7.72;2.22;;;;;;;10.58;100.00;102147.28;5059195;28;20540;-64
2023/10/16 11:30:18;;;;;;;6.47;2.40;;;;;;;10.58;100.00;102148.13;5042881;28;20056;-65
2023/10/16 11:33:09;;;;;;;6.82;2.30;;;;;;;10.60;100.00;102143.25;5055901;28;20056;-63
2023/10/16 11:36:03;;;;;;;5.35;1.83;;;;;;;10.63;100.00;102136.50;5076911;28;20053;-64
2023/10/16 11:38:53;;;;;;;3.75;1.88;;;;;;;10.66;100.00;102136.88;5061131;28;20041;-63
2023/10/16 11:41:41;;;;;;;5.10;1.60;;;;;;;10.74;100.00;102135.69;5059683;28;20040;-64
2023/10/16 11:44:32;;;;;;;5.18;1.67;;;;;;;10.84;100.00;102121.47;5078280;28;20041;-64
2023/10/16 11:47:21;;;;;;;5.25;1.67;;;;;;;10.88;100.00;102122.66;5091337;28;20040;-58
2023/10/16 11:50:17;;;;;;;3.55;1.75;;;;;;;10.86;100.00;102113.88;5089654;28;20130;-61
2023/10/16 11:53:08;;;;;;;5.35;1.90;;;;;;;10.86;100.00;102113.88;5083215;28;20040;-62
2023/10/16 11:55:56;;;;;;;4.20;1.67;;;;;;;10.87;100.00;102112.78;5058113;28;20124;-65
2023/10/16 11:58:45;;;;;;;6.18;2.15;;;;;;;10.89;100.00;102113.38;5072120;28;20041;-66
2023/10/16 12:01:33;;;;;;;4.05;2.00;;;;;;;10.91;100.00;102102.25;5048988;28;20052;-66
2023/10/16 12:04:42;;;;;;;6.47;1.77;;;;;;;10.91;100.00;102100.34;5075936;28;20060;-65
2023/10/16 12:07:31;;;;;;;5.88;2.30;;;;;;;10.95;100.00;102103.44;5071768;28;20052;-65
2023/10/16 12:10:19;;;;;;;4.05;1.90;;;;;;;10.97;100.00;102102.13;5061796;28;20098;-65
2023/10/16 12:13:07;;;;;;;7.18;2.05;;;;;;;10.98;100.00;102103.78;5047819;28;20048;-65
2023/10/16 12:15:57;;;;;;;5.05;2.13;;;;;;;10.96;100.00;102092.28;5056641;28;20055;-65
2023/10/16 12:18:47;;;;;;;7.70;1.90;;;;;;;10.96;100.00;102095.00;5034889;28;20082;-63
2023/10/16 12:21:37;;;;;;;4.25;1.77;;;;;;;10.96;100.00;102095.00;5071848;28;20048;-65
2023/10/16 12:24:26;;;;;;;6.18;1.90;;;;;;;10.96;98.22;102096.91;5075160;28;20041;-65
2023/10/16 12:27:15;;;;;;;4.47;1.70;;;;;;;10.97;96.98;102093.94;5073733;28;20123;-64
2023/10/16 12:30:05;;;;;;;7.00;1.70;;;;;;;10.99;95.99;102093.69;5061476;28;20064;-64
2023/10/16 12:32:54;;;;;;;3.60;1.63;;;;;;;11.00;96.48;102088.00;5059512;28;20131;-64
2023/10/16 12:35:42;;;;;;;5.97;2.00;;;;;;;11.05;96.94;102090.03;5058457;28;20527;-63
2023/10/16 12:38:30;;;;;;;5.72;1.45;;;;;;;11.08;96.55;102082.19;5073013;28;20045;-65
2023/10/16 12:41:21;;;;;;;2.22;1.40;;;;;;;11.09;97.56;102083.03;5052308;28;20155;-65
2023/10/16 12:44:13;;;;;;;3.55;1.65;;;;;;;11.07;97.69;102074.25;5012894;28;20041;-65
2023/10/16 12:47:01;;;;;;;3.47;1.70;;;;;;;11.07;98.45;102077.81;5041819;28;20056;-65
2023/10/16 12:49:53;;;;;;;4.70;1.90;;;;;;;11.12;97.53;102076.25;5042442;28;20041;-65
2023/10/16 12:52:42;;;;;;;3.13;1.40;;;;;;;11.16;97.71;102071.97;5059598;28;20048;-65
2023/10/16 12:55:31;;;;;;;6.40;2.30;;;;;;;11.17;96.93;102069.00;5060563;28;20052;-65
2023/10/16 12:58:19;;;;;;;2.85;1.30;;;;;;;11.17;96.57;102062.72;5059586;28;20048;-65
2023/10/16 13:01:10;;;;;;;9.65;2.25;;;;;;;11.17;96.96;102065.44;5073441;28;20052;-65
2023/10/16 13:04:01;;;;;;;6.50;2.13;;;;;;;11.18;97.55;102064.38;5060532;28;20516;-65
2023/10/16 13:06:49;;;;;;;4.35;1.60;;;;;;;11.18;97.75;102058.91;5072725;28;20419;-66
2023/10/16 13:09:39;;;;;;;1.95;1.23;;;;;;;11.18;99.02;102062.47;5065311;28;20409;-65
2023/10/16 13:12:27;;;;;;;4.38;1.83;;;;;;;11.21;98.03;102066.63;5069058;28;20044;-63
2023/10/16 13:15:24;;;;;;;6.43;1.88;;;;;;;11.23;97.75;102059.88;5073860;28;20078;-63
2023/10/16 13:18:14;;;;;;;5.53;2.20;;;;;;;11.25;97.36;102062.34;5043838;28;20090;-63
2023/10/16 13:21:12;;;;;;;4.18;1.80;;;;;;;11.31;96.56;102061.38;5053839;28;20391;-64
2023/10/16 13:24:11;;;;;;;4.72;1.83;;;;;;;11.40;97.80;102062.66;5053608;28;20037;-62
2023/10/16 13:26:59;;;;;;;4.40;1.65;;;;;;;11.45;94.88;102061.94;5039049;28;20055;-65
2023/10/16 13:29:47;;;;;;;2.58;1.38;;;;;;;11.48;93.69;102059.53;5074244;28;20190;-66
2023/10/16 13:32:35;;;;;;;4.55;1.88;;;;;;;11.49;93.34;102055.72;5041192;28;20056;-63
2023/10/16 13:35:23;;;;;;;7.82;2.05;;;;;;;11.51;93.56;102044.56;5073068;28;20496;-66
2023/10/16 13:38:11;;;;;;;3.33;1.35;;;;;;;11.52;93.76;102052.50;5069026;28;20162;-64
2023/10/16 13:41:06;;;;;;;6.05;1.75;;;;;;;11.51;93.16;102050.84;5073713;28;20404;-62
2023/10/16 13:43:55;;;;;;;4.57;1.60;;;;;;;11.52;93.51;102040.78;5073422;28;20496;-63
2023/10/16 13:46:46;;;;;;;5.55;1.85;;;;;;;11.55;95.08;102044.91;5064523;28;20044;-63
2023/10/16 13:49:38;;;;;;;2.92;1.50;;;;;;;11.56;94.67;102046.56;5056742;28;20044;-63
2023/10/16 13:52:26;;;;;;;4.55;1.70;;;;;;;11.54;94.49;102049.53;5071298;28;20044;-64
2023/10/16 13:55:14;;;;;;;5.65;2.08;;;;;;;11.52;94.68;102052.50;5072828;28;20566;-63
2023/10/16 13:58:02;;;;;;;4.57;1.60;;;;;;;11.51;95.11;102050.84;5059433;28;20131;-66
2023/10/16 14:00:51;;;;;;;5.60;2.10;;;;;;;11.48;95.13;102045.88;5040552;28;20045;-64
2023/10/16 14:03:40;;;;;;;4.57;1.67;;;;;;;11.46;94.77;102037.09;4358829;28;10001300;-64
2023/10/16 14:06:30;;;;;;;5.50;2.00;;;;;;;11.46;93.96;102036.28;5071743;28;20568;-64
2023/10/16 14:09:32;;;;;;;5.90;2.17;;;;;;;11.50;95.24;102037.47;5067503;28;20179;-64
2023/10/16 14:12:25;;;;;;;5.40;1.90;;;;;;;11.52;95.22;102036.13;5073562;28;20048;-65
2023/10/16 14:15:19;;;;;;;4.70;1.80;;;;;;;11.52;96.31;102035.31;5050592;28;20084;-63
2023/10/16 14:18:20;;;;;;;5.50;2.00;;;;;;;11.51;96.50;102029.00;5071765;28;20530;-61
2023/10/16 14:21:10;;;;;;;5.82;1.98;;;;;;;11.49;96.94;102031.16;5055444;28;20085;-63
2023/10/16 14:24:01;;;;;;;4.82;1.73;;;;;;;11.49;96.74;102022.97;5070516;28;20368;-64
2023/10/16 14:26:55;;;;;;;4.70;2.00;;;;;;;11.50;97.59;102021.91;5038669;28;20040;-61
2023/10/16 14:29:45;;;;;;;3.95;1.80;;;;;;;11.50;97.73;102016.44;5041887;28;20040;-62
2023/10/16 14:32:34;;;;;;;5.65;1.98;;;;;;;11.50;97.89;102024.63;5055878;28;20056;-65
2023/10/16 14:35:24;;;;;;;4.85;2.17;;;;;;;11.50;97.18;102021.91;5055103;28;20052;-63
2023/10/16 14:38:16;;;;;;;7.65;2.33;;;;;;;11.49;96.56;102017.50;5054389;28;20060;-62
2023/10/16 14:41:09;;;;;;;4.35;2.08;;;;;;;11.51;96.39;102020.00;5032026;28;20087;-63
2023/10/16 14:43:57;;;;;;;7.07;2.00;;;;;;;11.50;96.38;102021.09;5028349;28;20057;-64
2023/10/16 14:46:45;;;;;;;5.15;1.95;;;;;;;11.51;96.15;102018.09;5010259;28;20120;-65
2023/10/16 14:49:35;;;;;;;5.38;2.05;;;;;;;11.50;95.26;102016.44;5025839;28;20049;-64
2023/10/16 14:52:24;;;;;;;4.85;1.83;;;;;;;11.49;95.26;102014.78;5028162;28;20053;-64
2023/10/16 14:55:17;;;;;;;5.60;2.22;;;;;;;11.49;95.31;102009.31;5032574;28;20041;-62